createdAt,value
2024-04-13T00:01:50.384Z,99625.38
2024-04-13T00:07:16.890Z,99637.66
2024-04-13T00:12:39.577Z,99655.97
2024-04-13T00:18:08.263Z,99654.50
2024-04-13T00:23:32.618Z,99658.81
2024-04-13T00:28:56.077Z,99675.78
2024-04-13T00:34:18.904Z,99665.19
2024-04-13T00:39:41.931Z,99683.06
2024-04-13T00:45:06.258Z,99681.25
2024-04-13T00:50:32.973Z,99697.13
2024-04-13T00:55:56.933Z,99694.38
2024-04-13T01:01:20.297Z,99697.16
2024-04-13T01:06:43.157Z,99682.56
2024-04-13T01:12:08.060Z,99697.06
2024-04-13T01:17:30.941Z,99694.22
2024-04-13T01:22:54.076Z,99700.44
2024-04-13T01:28:17.265Z,99704.59
2024-04-13T01:33:40.060Z,99702.06
2024-04-13T01:39:04.548Z,99695.00
2024-04-13T01:44:27.195Z,99699.13
2024-04-13T01:49:49.631Z,99705.47
2024-04-13T01:55:13.184Z,99701.81
2024-04-13T02:00:37.330Z,99697.41
2024-04-13T02:06:06.798Z,99705.53
2024-04-13T02:11:29.531Z,99706.38
2024-04-13T02:17:18.714Z,99703.06
2024-04-13T02:22:40.994Z,99705.94
2024-04-13T02:28:03.965Z,99710.06
2024-04-13T02:33:27.727Z,99714.88
2024-04-13T02:38:54.442Z,99720.66
2024-04-13T02:44:16.786Z,99719.22
2024-04-13T02:49:40.179Z,99724.78
2024-04-13T02:55:03.012Z,99727.66
2024-04-13T03:00:25.476Z,99732.28
2024-04-13T03:05:58.868Z,99725.75
2024-04-13T03:11:23.099Z,99739.66
2024-04-13T03:16:46.056Z,99743.09
2024-04-13T03:22:09.473Z,99752.97
2024-04-13T03:27:32.569Z,99744.22
2024-04-13T03:32:55.442Z,99760.78
2024-04-13T03:43:55.218Z,99758.53
2024-04-13T03:49:20.776Z,99756.94
2024-04-13T03:54:44.093Z,99754.94
2024-04-13T04:00:09.081Z,99761.16
2024-04-13T04:05:35.116Z,99764.38
2024-04-13T04:10:59.384Z,99772.91
2024-04-13T04:16:35.008Z,99776.09
2024-04-13T04:22:12.144Z,99776.41
2024-04-13T04:27:47.140Z,99789.63
2024-04-13T04:33:09.633Z,99793.63
2024-04-13T04:38:36.920Z,99766.84
2024-04-13T04:44:00.212Z,99794.81
2024-04-13T04:49:23.563Z,99801.53
2024-04-13T04:54:47.171Z,99801.03
2024-04-13T05:00:16.391Z,99805.41
2024-04-13T05:05:39.718Z,99807.88
2024-04-13T05:11:03.822Z,99807.66
2024-04-13T05:16:27.425Z,99815.19
2024-04-13T05:21:50.023Z,99812.56
2024-04-13T05:27:13.353Z,99814.25
2024-04-13T05:32:50.794Z,99819.94
2024-04-13T05:38:14.470Z,99819.16
2024-04-13T05:43:37.592Z,99817.38
2024-04-13T05:49:19.587Z,99826.91
2024-04-13T05:54:45.649Z,99826.25
2024-04-13T06:00:11.276Z,99833.78
2024-04-13T06:05:34.133Z,99826.78
2024-04-13T06:10:57.294Z,99833.09
2024-04-13T06:16:19.801Z,99825.13
2024-04-13T06:21:44.676Z,99825.38
2024-04-13T06:27:11.629Z,99830.50
2024-04-13T06:32:36.154Z,99824.03
2024-04-13T06:38:11.893Z,99820.38
2024-04-13T06:43:34.936Z,99830.91
2024-04-13T06:48:57.762Z,99823.06
2024-04-13T06:54:21.266Z,99820.19
2024-04-13T06:59:44.908Z,99814.88
2024-04-13T07:05:11.355Z,99821.53
2024-04-13T07:10:34.085Z,99814.19
2024-04-13T07:16:09.020Z,99825.59
2024-04-13T07:21:31.752Z,99837.03
2024-04-13T07:26:55.234Z,99831.94
2024-04-13T07:32:17.678Z,99837.13
2024-04-13T07:37:40.939Z,99840.81
2024-04-13T07:43:16.782Z,99835.75
2024-04-13T07:48:40.523Z,99843.19
2024-04-13T07:54:03.111Z,99842.72
2024-04-13T07:59:43.516Z,99841.22
2024-04-13T08:05:09.631Z,99847.06
2024-04-13T08:10:33.476Z,99858.69
2024-04-13T08:15:57.525Z,99854.94
2024-04-13T08:21:20.973Z,99864.81
2024-04-13T08:26:44.932Z,99868.28
2024-04-13T08:32:08.016Z,99863.31
2024-04-13T08:37:31.105Z,99861.22
2024-04-13T08:42:55.672Z,99865.34
2024-04-13T08:48:19.656Z,99865.53
2024-04-13T08:53:58.859Z,99866.38
2024-04-13T08:59:23.202Z,99861.38
2024-04-13T09:04:46.289Z,99861.47
2024-04-13T09:10:11.894Z,99865.53
2024-04-13T09:15:35.062Z,99864.94
2024-04-13T09:20:59.369Z,99865.41
2024-04-13T09:26:25.028Z,99859.28
2024-04-13T09:31:48.705Z,99858.50
2024-04-13T09:37:11.223Z,99871.75
2024-04-13T09:42:34.672Z,99855.19
2024-04-13T09:48:01.410Z,99871.53
2024-04-13T09:53:23.978Z,99865.28
2024-04-13T09:58:47.515Z,99861.28
2024-04-13T10:04:22.711Z,99865.91
2024-04-13T10:10:00.538Z,99867.94
2024-04-13T10:15:25.465Z,99877.78
2024-04-13T10:20:49.197Z,99876.72
2024-04-13T10:26:12.149Z,99862.69
2024-04-13T10:31:34.660Z,99866.81
2024-04-13T10:37:00.158Z,99873.66
2024-04-13T10:42:22.885Z,99862.00
2024-04-13T10:47:46.435Z,99866.28
2024-04-13T10:53:12.671Z,99860.09
2024-04-13T10:58:35.295Z,99852.72
2024-04-13T11:04:12.654Z,99852.84
2024-04-13T11:09:35.200Z,99853.66
2024-04-13T11:14:57.316Z,99853.03
2024-04-13T11:20:24.039Z,99853.53
2024-04-13T11:25:46.561Z,99864.78
2024-04-13T11:31:09.480Z,99857.81
2024-04-13T11:36:32.443Z,99865.19
2024-04-13T11:42:07.815Z,99856.34
2024-04-13T11:47:30.551Z,99861.84
2024-04-13T11:53:05.217Z,99866.63
2024-04-13T11:58:27.198Z,99868.72
2024-04-13T12:03:49.612Z,99873.88
2024-04-13T12:09:12.207Z,99869.69
2024-04-13T12:14:54.684Z,99869.06
2024-04-13T12:20:17.556Z,99861.50
2024-04-13T12:25:40.348Z,99864.38
2024-04-13T12:31:02.556Z,99866.16
2024-04-13T12:36:25.018Z,99866.44
2024-04-13T12:41:48.100Z,99872.63
2024-04-13T12:47:22.827Z,99880.81
2024-04-13T12:53:00.252Z,99869.69
2024-04-13T12:58:22.919Z,99855.09
2024-04-13T13:03:57.562Z,99870.78
2024-04-13T13:09:20.405Z,99861.09
2024-04-13T13:14:43.142Z,99858.63
2024-04-13T13:20:07.232Z,99852.44
2024-04-13T13:25:29.340Z,99850.56
2024-04-13T13:30:51.654Z,99851.78
2024-04-13T13:36:14.123Z,99849.81
2024-04-13T13:41:38.902Z,99838.31
2024-04-13T13:47:01.223Z,99837.50
2024-04-13T13:52:33.387Z,99833.53
2024-04-13T13:58:02.599Z,99848.41
2024-04-13T14:03:24.606Z,99832.38
2024-04-13T14:08:49.721Z,99830.88
2024-04-13T14:14:15.725Z,99842.97
2024-04-13T14:19:38.761Z,99818.69
2024-04-13T14:25:01.488Z,99830.00
2024-04-13T14:30:26.105Z,99830.56
2024-04-13T14:36:01.361Z,99836.50
2024-04-13T14:41:24.001Z,99835.63
2024-04-13T14:46:48.064Z,99839.78
2024-04-13T14:52:11.191Z,99833.66
2024-04-13T14:57:33.349Z,99835.91
2024-04-13T15:02:55.417Z,99843.44
2024-04-13T15:08:17.562Z,99833.78
2024-04-13T15:13:39.603Z,99845.69
2024-04-13T15:19:14.044Z,99849.13
2024-04-13T15:24:36.793Z,99850.06
2024-04-13T15:30:11.767Z,99844.97
2024-04-13T15:35:34.135Z,99852.06
2024-04-13T15:40:57.225Z,99822.72
2024-04-13T15:46:21.621Z,99840.81
2024-04-13T15:51:44.259Z,99853.34
2024-04-13T15:57:41.366Z,99843.88
2024-04-13T16:03:08.573Z,99852.59
2024-04-13T16:08:31.477Z,99855.06
2024-04-13T16:14:05.635Z,99850.84
2024-04-13T16:19:32.011Z,99845.91
2024-04-13T16:24:56.212Z,99847.06
2024-04-13T16:30:18.788Z,99846.09
2024-04-13T16:35:43.314Z,99853.53
2024-04-13T16:41:09.105Z,99854.22
2024-04-13T16:46:43.441Z,99864.88
2024-04-13T16:52:06.903Z,99852.22
2024-04-13T16:57:29.409Z,99854.50
2024-04-13T17:02:52.420Z,99865.50
2024-04-13T17:08:16.401Z,99882.72
2024-04-13T17:13:39.073Z,99877.91
2024-04-13T17:19:02.197Z,99877.50
2024-04-13T17:24:27.308Z,99876.88
2024-04-13T17:29:50.113Z,99877.19
2024-04-13T17:35:12.805Z,99877.44
2024-04-13T17:40:35.959Z,99873.53
2024-04-13T17:46:10.800Z,99883.03
2024-04-13T17:51:33.392Z,99897.91
2024-04-13T17:56:56.984Z,99890.94
2024-04-13T18:02:22.302Z,99892.66
2024-04-13T18:07:46.196Z,99892.97
2024-04-13T18:13:08.784Z,99884.81
2024-04-13T18:18:32.234Z,99870.50
2024-04-13T18:23:55.245Z,99875.56
2024-04-13T18:29:18.001Z,99869.69
2024-04-13T18:34:40.831Z,99868.06
2024-04-13T18:40:06.421Z,99827.53
2024-04-13T18:45:28.690Z,99854.19
2024-04-13T18:50:55.547Z,99862.16
2024-04-13T18:56:18.968Z,99850.88
2024-04-13T19:01:42.392Z,99851.50
2024-04-13T19:07:08.062Z,99850.84
2024-04-13T19:12:34.494Z,99859.34
2024-04-13T19:17:57.505Z,99855.78
2024-04-13T19:23:21.364Z,99855.00
2024-04-13T19:28:48.149Z,99862.28
2024-04-13T19:34:10.983Z,99865.00
2024-04-13T19:39:33.923Z,99862.69
2024-04-13T19:44:57.035Z,99859.88
2024-04-13T19:50:20.628Z,99866.13
2024-04-13T19:55:48.767Z,99864.47
2024-04-13T20:01:11.961Z,99852.88
2024-04-13T20:06:35.685Z,99854.25
2024-04-13T20:11:58.567Z,99870.78
2024-04-13T20:17:39.972Z,99868.59
2024-04-13T20:23:15.340Z,99868.28
2024-04-13T20:28:37.935Z,99862.94
2024-04-13T20:34:02.085Z,99875.25
2024-04-13T20:39:24.576Z,99867.91
2024-04-13T20:44:48.828Z,99873.94
2024-04-13T20:50:12.347Z,99884.13
2024-04-13T20:55:35.311Z,99882.47
2024-04-13T21:01:01.296Z,99884.22
2024-04-13T21:06:23.868Z,99880.63
2024-04-13T21:11:46.623Z,99872.16
2024-04-13T21:17:09.403Z,99887.19
2024-04-13T21:22:31.680Z,99889.75
2024-04-13T21:27:54.409Z,99884.91
2024-04-13T21:33:17.020Z,99886.63
2024-04-13T21:38:41.221Z,99872.91
2024-04-13T21:44:04.094Z,99852.56
2024-04-13T21:49:41.606Z,99865.19
2024-04-13T21:55:12.376Z,99855.81
2024-04-13T22:00:34.770Z,99860.03
2024-04-13T22:05:57.674Z,99851.41
2024-04-13T22:11:20.347Z,99862.31
2024-04-13T22:16:43.295Z,99854.19
2024-04-13T22:22:05.848Z,99860.59
2024-04-13T22:27:28.466Z,99851.28
2024-04-13T22:32:53.541Z,99850.00
2024-04-13T22:38:15.870Z,99847.25
2024-04-13T22:43:38.105Z,99847.84
2024-04-13T22:49:04.406Z,99852.44
2024-04-13T22:54:41.199Z,99856.31
2024-04-13T23:00:04.609Z,99852.72
2024-04-13T23:05:26.912Z,99851.63
2024-04-13T23:10:49.269Z,99848.41
2024-04-13T23:16:11.468Z,99841.94
2024-04-13T23:21:37.783Z,99850.25
2024-04-13T23:27:00.458Z,99843.41
2024-04-13T23:32:22.820Z,99844.59
2024-04-13T23:37:45.722Z,99848.56
2024-04-13T23:43:08.424Z,99817.94
2024-04-13T23:48:31.049Z,99840.84
2024-04-13T23:53:53.773Z,99837.84
2024-04-13T23:59:16.493Z,99833.06
